Time;durP1;ratioP1;P1;durP2;ratioP2;P2;SDS_P1;SDS_P2;PMS_P1;PMS_P2;Temp;Humidity;BMP_temperature;BMP_pressure;BME280_temperature;BME280_humidity;BME280_pressure;Samples;Min_cycle;Max_cycle;Signal;HPM_P1;HPM_P2
2022/10/18 00:00:22;;;;;;;10.45;5.15;;;;;;;16.73;100.00;99409.25;4107809;28;20210;-62
2022/10/18 00:02:24;;;;;;;9.25;4.57;;;;;;;16.73;100.00;99404.59;4109899;28;20635;-60
2022/10/18 00:04:26;;;;;;;8.63;5.68;;;;;;;16.77;100.00;99411.22;4110072;28;20233;-61
2022/10/18 00:06:27;;;;;;;7.53;5.50;;;;;;;16.80;100.00;99404.31;4110450;28;20226;-61
2022/10/18 00:08:29;;;;;;;14.18;4.22;;;;;;;16.79;100.00;99414.56;4108160;28;20221;-61
2022/10/18 00:10:30;;;;;;;6.28;5.78;;;;;;;16.88;100.00;99412.94;4108301;28;20215;-62
2022/10/18 00:12:36;;;;;;;19.52;5.35;;;;;;;16.85;100.00;99412.66;4109177;28;20269;-62
2022/10/18 00:14:37;;;;;;;7.38;5.10;;;;;;;16.82;100.00;99405.72;4108556;28;20277;-61
2022/10/18 00:16:39;;;;;;;14.10;4.90;;;;;;;16.91;100.00;99400.53;4108427;28;20704;-63
2022/10/18 00:18:41;;;;;;;7.13;5.07;;;;;;;16.86;100.00;99406.88;4110097;28;20593;-63
2022/10/18 00:20:42;;;;;;;6.47;5.38;;;;;;;16.80;100.00;99413.47;4107469;28;20207;-63
2022/10/18 00:22:44;;;;;;;5.38;4.88;;;;;;;16.78;100.00;99417.59;4108120;28;20207;-63
2022/10/18 00:24:45;;;;;;;9.40;6.07;;;;;;;16.82;100.00;99419.56;4109819;28;20207;-63
2022/10/18 00:26:47;;;;;;;13.05;5.47;;;;;;;16.88;100.00;99417.66;4107758;28;20240;-64
2022/10/18 00:28:51;;;;;;;11.38;6.90;;;;;;;16.76;100.00;99420.63;4108023;28;20215;-64
2022/10/18 00:30:53;;;;;;;5.43;4.93;;;;;;;16.74;100.00;99422.81;4124394;28;20237;-63
2022/10/18 00:32:54;;;;;;;6.97;5.13;;;;;;;16.74;100.00;99422.81;4091246;29;20215;-64
2022/10/18 00:34:56;;;;;;;7.88;5.30;;;;;;;16.75;100.00;99432.78;4110970;28;20281;-63
2022/10/18 00:36:57;;;;;;;10.43;5.18;;;;;;;16.75;100.00;99421.72;4110001;28;20257;-64
2022/10/18 00:39:00;;;;;;;16.75;5.30;;;;;;;16.79;100.00;99427.56;4110016;28;21337;-63
2022/10/18 00:41:03;;;;;;;5.35;4.82;;;;;;;16.80;100.00;99426.44;4107344;28;20203;-64
2022/10/18 00:43:05;;;;;;;7.57;4.15;;;;;;;16.81;100.00;99422.56;4123725;28;20209;-64
2022/10/18 00:45:16;;;;;;;8.52;5.20;;;;;;;16.68;100.00;99418.38;4108093;28;20265;-63
2022/10/18 00:47:18;;;;;;;5.38;4.55;;;;;;;16.72;100.00;99419.50;4108327;28;20221;-63
2022/10/18 00:49:34;;;;;;;9.27;4.45;;;;;;;16.75;100.00;99418.97;4126200;28;20198;-64
2022/10/18 00:51:43;;;;;;;8.27;4.55;;;;;;;16.72;100.00;99405.69;4123929;28;20343;-64
2022/10/18 00:53:44;;;;;;;9.85;5.40;;;;;;;16.75;100.00;99413.44;4094545;28;20207;-64
2022/10/18 00:55:46;;;;;;;14.52;5.75;;;;;;;16.71;100.00;99412.31;4106746;28;20230;-64
2022/10/18 00:57:48;;;;;;;5.60;4.25;;;;;;;16.70;100.00;99427.22;4108115;28;20207;-63
2022/10/18 00:59:50;;;;;;;11.02;4.60;;;;;;;16.75;100.00;99418.97;4122650;28;20713;-63
2022/10/18 01:01:51;;;;;;;7.03;4.50;;;;;;;16.71;100.00;99417.84;4104356;28;20207;-63
2022/10/18 01:03:53;;;;;;;5.97;4.03;;;;;;;16.73;100.00;99410.09;4123012;28;20210;-63
2022/10/18 01:05:55;;;;;;;15.20;6.03;;;;;;;16.60;100.00;99407.81;4123700;28;20272;-63
2022/10/18 01:08:14;;;;;;;9.63;4.82;;;;;;;16.59;100.00;99403.41;4107575;28;20207;-63
2022/10/18 01:10:38;;;;;;;8.95;5.35;;;;;;;16.59;100.00;99403.41;4123756;28;20198;-63
2022/10/18 01:13:24;;;;;;;11.25;4.70;;;;;;;16.56;100.00;99406.69;4107211;28;20248;-64
2022/10/18 01:15:29;;;;;;;4.57;4.05;;;;;;;16.54;100.00;99410.81;4107131;28;20785;-63
2022/10/18 01:17:51;;;;;;;5.93;4.38;;;;;;;16.48;100.00;99404.41;4122297;28;20201;-63
2022/10/18 01:20:22;;;;;;;6.75;4.38;;;;;;;16.46;100.00;99403.88;4122603;28;20728;-63
2022/10/18 01:22:43;;;;;;;5.20;4.65;;;;;;;16.54;100.00;99405.28;4107287;28;20725;-63
2022/10/18 01:25:15;;;;;;;4.95;4.45;;;;;;;16.50;100.00;99396.69;4107105;28;20206;-63
2022/10/18 01:27:38;;;;;;;13.07;4.63;;;;;;;16.49;100.00;99397.78;4105316;28;20654;-63
2022/10/18 01:30:13;;;;;;;7.90;4.93;;;;;;;16.50;100.00;99388.41;4107657;28;20721;-64
2022/10/18 01:32:22;;;;;;;7.65;5.07;;;;;;;16.55;100.00;99391.19;4108760;28;20210;-64
2022/10/18 01:34:25;;;;;;;7.55;3.97;;;;;;;16.51;100.00;99392.84;4107421;28;20554;-63
2022/10/18 01:36:35;;;;;;;9.88;5.45;;;;;;;16.59;100.00;99381.28;4122146;28;20229;-64
2022/10/18 01:38:37;;;;;;;7.82;5.30;;;;;;;16.56;100.00;99381.00;4105636;28;20210;-63
2022/10/18 01:40:40;;;;;;;8.82;5.10;;;;;;;16.52;100.00;99379.84;4121492;28;20272;-63
2022/10/18 01:42:42;;;;;;;7.18;5.50;;;;;;;16.44;100.00;99383.94;4105914;28;20210;-64
2022/10/18 01:44:44;;;;;;;8.13;5.63;;;;;;;16.41;100.00;99378.94;4105556;28;20273;-63
2022/10/18 01:46:46;;;;;;;10.30;5.78;;;;;;;16.39;100.00;99377.56;4105164;28;20837;-63
2022/10/18 01:48:48;;;;;;;6.40;5.32;;;;;;;16.35;100.00;99382.75;4104084;28;20261;-63
2022/10/18 01:50:51;;;;;;;9.90;4.78;;;;;;;16.36;100.00;99381.66;4106349;28;20305;-63
2022/10/18 01:52:52;;;;;;;7.85;5.53;;;;;;;16.38;100.00;99379.50;4107979;28;20212;-63
2022/10/18 01:54:54;;;;;;;11.07;4.43;;;;;;;16.42;100.00;99385.31;4107029;28;20631;-63
2022/10/18 01:56:59;;;;;;;10.63;4.68;;;;;;;16.42;100.00;99380.63;4104294;28;20333;-64
2022/10/18 01:59:04;;;;;;;15.73;4.70;;;;;;;16.44;100.00;99378.41;4107838;28;20210;-63
2022/10/18 02:01:10;;;;;;;6.18;4.45;;;;;;;16.48;100.00;99385.06;4104033;28;21790;-63
2022/10/18 02:03:21;;;;;;;17.73;5.25;;;;;;;16.47;100.00;99383.41;4122286;28;20731;-61
2022/10/18 02:05:42;;;;;;;6.78;4.43;;;;;;;16.44;100.00;99383.94;4108314;28;20313;-61
2022/10/18 02:07:47;;;;;;;6.97;4.90;;;;;;;16.51;100.00;99386.47;4107307;28;20203;-61
2022/10/18 02:10:20;;;;;;;5.57;4.32;;;;;;;16.49;100.00;99375.69;4108366;28;20262;-61
2022/10/18 02:12:22;;;;;;;9.82;5.70;;;;;;;16.47;100.00;99380.66;4107692;28;20206;-61
2022/10/18 02:14:24;;;;;;;6.55;4.43;;;;;;;16.41;100.00;99378.94;4106801;28;20217;-61
2022/10/18 02:16:35;;;;;;;14.90;4.40;;;;;;;16.40;100.00;99371.78;4107430;28;20752;-61
2022/10/18 02:18:40;;;;;;;5.05;3.60;;;;;;;16.44;100.00;99370.13;4124559;28;20629;-61
2022/10/18 02:20:41;;;;;;;8.35;3.67;;;;;;;16.43;100.00;99371.22;4121942;28;20671;-61
2022/10/18 02:22:44;;;;;;;5.88;4.13;;;;;;;16.43;100.00;99362.94;4102481;28;20249;-61
2022/10/18 02:24:48;;;;;;;7.05;4.45;;;;;;;16.42;100.00;99372.31;4106753;28;20210;-63
2022/10/18 02:26:50;;;;;;;6.78;4.93;;;;;;;16.49;100.00;99364.63;4106734;28;20249;-63
2022/10/18 02:28:51;;;;;;;5.75;4.03;;;;;;;16.41;100.00;99367.91;4104751;28;20278;-61
2022/10/18 02:31:18;;;;;;;9.07;4.60;;;;;;;16.54;100.00;99361.06;4105790;28;20206;-61
2022/10/18 02:33:34;;;;;;;8.75;4.82;;;;;;;16.46;100.00;99364.34;4107003;28;20686;-62
2022/10/18 02:35:39;;;;;;;6.10;5.35;;;;;;;16.39;100.00;99363.75;4105796;28;20226;-63
2022/10/18 02:37:41;;;;;;;4.88;4.40;;;;;;;16.45;100.00;99363.53;4108332;28;20213;-63
2022/10/18 02:39:47;;;;;;;8.13;4.65;;;;;;;16.50;100.00;99360.75;4107404;28;20211;-63
2022/10/18 02:41:48;;;;;;;13.63;5.75;;;;;;;16.34;100.00;99361.75;4105277;28;20198;-63
2022/10/18 02:43:50;;;;;;;7.68;4.95;;;;;;;16.29;100.00;99375.53;4107195;28;20215;-63
2022/10/18 02:45:51;;;;;;;13.93;5.68;;;;;;;16.30;100.00;99377.19;4107588;28;20242;-63
2022/10/18 02:47:53;;;;;;;8.95;5.55;;;;;;;16.30;100.00;99384.66;4107041;28;20336;-63
2022/10/18 02:49:54;;;;;;;8.00;4.60;;;;;;;16.29;100.00;99392.09;4105866;28;20695;-63
2022/10/18 02:51:56;;;;;;;7.60;4.72;;;;;;;16.30;100.00;99385.47;4107280;28;20215;-63
2022/10/18 02:53:57;;;;;;;10.40;4.75;;;;;;;16.32;100.00;99387.97;4122473;28;20206;-63
2022/10/18 02:55:59;;;;;;;13.20;4.65;;;;;;;16.29;100.00;99392.09;4104909;28;20285;-63
2022/10/18 02:58:00;;;;;;;7.60;5.32;;;;;;;16.33;100.00;99393.25;4108823;28;20214;-64
2022/10/18 03:00:04;;;;;;;6.32;5.80;;;;;;;16.18;100.00;99384.84;4106655;28;20696;-63
2022/10/18 03:02:06;;;;;;;6.32;4.55;;;;;;;16.21;100.00;99406.41;4104294;28;20218;-63
2022/10/18 03:04:08;;;;;;;5.57;5.07;;;;;;;16.36;100.00;99400.97;4106150;28;20215;-63
2022/10/18 03:06:10;;;;;;;6.97;5.18;;;;;;;16.21;100.00;99405.56;4106219;28;20237;-63
2022/10/18 03:08:11;;;;;;;5.00;4.60;;;;;;;16.14;100.00;99411.31;4104453;28;20545;-65
2022/10/18 03:10:13;;;;;;;6.05;5.53;;;;;;;16.14;100.00;99404.94;4105794;28;20207;-62
2022/10/18 03:12:15;;;;;;;10.82;6.10;;;;;;;15.88;100.00;99400.31;4106706;28;20261;-62
2022/10/18 03:14:16;;;;;;;12.48;6.43;;;;;;;15.90;100.00;99410.00;4107678;28;20207;-62
2022/10/18 03:16:18;;;;;;;6.05;5.57;;;;;;;15.95;100.00;99410.06;4106946;28;20234;-62
2022/10/18 03:18:20;;;;;;;9.15;6.18;;;;;;;16.02;100.00;99416.19;4105843;28;20571;-62
2022/10/18 03:20:22;;;;;;;10.50;6.32;;;;;;;16.03;100.00;99406.81;4107077;28;20261;-62
2022/10/18 03:22:24;;;;;;;10.65;6.10;;;;;;;15.90;100.00;99410.00;4107210;28;20247;-62
2022/10/18 03:24:25;;;;;;;7.45;5.80;;;;;;;15.92;100.00;99418.88;4107053;28;20247;-62
2022/10/18 03:26:27;;;;;;;9.40;6.38;;;;;;;15.91;100.00;99427.41;4106904;28;20701;-62
2022/10/18 03:28:28;;;;;;;10.00;6.10;;;;;;;15.94;100.00;99427.72;4108046;28;20199;-62
2022/10/18 03:30:30;;;;;;;10.45;6.97;;;;;;;15.90;100.00;99426.56;4102153;28;20269;-62
2022/10/18 03:32:31;;;;;;;6.55;5.97;;;;;;;15.95;100.00;99432.13;4105759;28;20884;-61
2022/10/18 03:34:33;;;;;;;10.45;5.57;;;;;;;15.97;100.00;99427.19;4106039;28;20208;-62
2022/10/18 03:36:35;;;;;;;8.57;6.07;;;;;;;16.21;100.00;99434.03;4106188;28;20227;-61
2022/10/18 03:38:37;;;;;;;9.07;6.35;;;;;;;15.91;100.00;99422.69;4106926;28;20679;-62
2022/10/18 03:40:38;;;;;;;9.45;6.00;;;;;;;15.94;100.00;99430.47;4105297;28;20265;-62
2022/10/18 03:42:40;;;;;;;13.60;5.10;;;;;;;16.02;100.00;99435.50;4105746;28;20207;-62
2022/10/18 03:44:41;;;;;;;11.55;5.78;;;;;;;16.04;100.00;99429.72;4106068;28;20662;-61
2022/10/18 03:46:43;;;;;;;8.07;5.30;;;;;;;15.93;100.00;99428.81;4106507;28;20231;-61
2022/10/18 03:48:44;;;;;;;10.27;4.88;;;;;;;15.95;100.00;99434.91;4106338;28;20713;-62
2022/10/18 03:50:46;;;;;;;7.28;6.50;;;;;;;15.94;100.00;99433.25;4105683;28;20207;-62
2022/10/18 03:52:47;;;;;;;6.95;6.35;;;;;;;15.84;100.00;99424.03;4108447;28;20255;-62
2022/10/18 03:54:48;;;;;;;10.75;5.55;;;;;;;15.86;100.00;99419.91;4106821;28;20671;-61
2022/10/18 03:56:50;;;;;;;5.72;5.25;;;;;;;15.89;100.00;99424.91;4107168;28;20234;-61
2022/10/18 03:58:51;;;;;;;6.60;6.03;;;;;;;15.90;100.00;99426.56;4108053;28;20222;-61
2022/10/18 04:00:54;;;;;;;7.88;5.68;;;;;;;15.96;100.00;99422.75;4106584;28;20218;-62
2022/10/18 04:02:55;;;;;;;8.23;5.93;;;;;;;15.98;100.00;99425.25;4105058;28;20219;-61
2022/10/18 04:04:57;;;;;;;7.25;6.47;;;;;;;15.98;100.00;99416.97;4103949;28;20536;-62
2022/10/18 04:06:59;;;;;;;7.57;6.30;;;;;;;15.97;100.00;99427.19;4104448;28;20207;-62
2022/10/18 04:09:00;;;;;;;6.78;5.38;;;;;;;16.03;100.00;99415.09;4106466;28;20643;-61
2022/10/18 04:11:07;;;;;;;5.78;5.28;;;;;;;16.02;100.00;99430.00;4104119;28;20609;-62
2022/10/18 04:13:08;;;;;;;7.15;5.93;;;;;;;16.08;100.00;99433.63;4105408;28;20213;-62
2022/10/18 04:15:10;;;;;;;6.38;5.72;;;;;;;16.11;100.00;99430.34;4105464;28;20210;-61
2022/10/18 04:17:12;;;;;;;12.10;7.50;;;;;;;15.96;100.00;99425.50;4090843;28;20224;-62
2022/10/18 04:19:13;;;;;;;5.95;5.45;;;;;;;15.92;100.00;99434.59;4107259;28;20215;-61
2022/10/18 04:21:15;;;;;;;9.52;5.13;;;;;;;15.93;100.00;99426.06;4103501;28;20280;-62
2022/10/18 04:23:17;;;;;;;8.70;5.15;;;;;;;15.98;100.00;99425.25;4119503;28;20250;-61
2022/10/18 04:25:18;;;;;;;6.63;6.07;;;;;;;15.95;100.00;99426.63;4104900;28;20238;-61
2022/10/18 04:27:20;;;;;;;8.40;5.28;;;;;;;16.08;100.00;99428.94;4106470;28;20203;-62
2022/10/18 04:29:21;;;;;;;16.33;7.45;;;;;;;16.02;100.00;99424.47;4103908;28;20696;-61
2022/10/18 04:31:23;;;;;;;10.02;7.90;;;;;;;16.03;100.00;99426.13;4108820;28;20207;-61
2022/10/18 04:33:24;;;;;;;8.45;7.65;;;;;;;15.94;100.00;99427.72;4109951;28;20254;-62
2022/10/18 04:35:27;;;;;;;8.50;7.65;;;;;;;15.98;100.00;99425.25;4106788;28;20319;-62
2022/10/18 04:37:28;;;;;;;10.48;7.82;;;;;;;16.11;100.00;99435.88;4107900;28;20735;-62
2022/10/18 04:39:30;;;;;;;8.75;7.38;;;;;;;15.98;100.00;99439.06;4108546;28;20211;-61
2022/10/18 04:41:32;;;;;;;7.93;7.18;;;;;;;15.96;100.00;99442.06;4109223;28;20614;-62
2022/10/18 04:43:34;;;;;;;7.78;7.05;;;;;;;16.00;100.00;99443.25;4107531;28;20214;-61
2022/10/18 04:45:35;;;;;;;7.65;6.95;;;;;;;15.87;100.00;99446.44;4107499;28;20238;-62
2022/10/18 04:47:37;;;;;;;11.70;7.60;;;;;;;15.87;100.00;99446.44;4106418;28;20214;-61
2022/10/18 04:49:39;;;;;;;7.82;6.20;;;;;;;15.99;100.00;99447.09;4108092;28;20214;-61
2022/10/18 04:51:40;;;;;;;10.35;6.88;;;;;;;15.91;100.00;99436.50;4108580;28;20273;-62
2022/10/18 04:53:41;;;;;;;6.38;5.80;;;;;;;15.87;100.00;99442.81;4108749;28;20203;-62
2022/10/18 04:55:44;;;;;;;5.82;5.18;;;;;;;15.86;100.00;99447.53;4107504;28;20302;-61
2022/10/18 04:57:46;;;;;;;10.77;5.95;;;;;;;16.00;100.00;99443.25;4107674;28;20234;-62
2022/10/18 04:59:47;;;;;;;5.53;5.00;;;;;;;15.92;100.00;99440.13;4109034;28;20211;-61
2022/10/18 05:01:49;;;;;;;6.85;5.40;;;;;;;15.90;100.00;99443.13;4107908;28;20729;-62
2022/10/18 05:03:53;;;;;;;5.70;5.25;;;;;;;15.87;100.00;99437.28;4107473;28;20301;-62
2022/10/18 05:05:54;;;;;;;8.02;4.75;;;;;;;15.87;100.00;99440.91;4105764;28;20226;-61
2022/10/18 05:08:05;;;;;;;9.35;5.13;;;;;;;15.88;100.00;99439.81;4106405;28;20218;-61
2022/10/18 05:10:07;;;;;;;6.22;5.70;;;;;;;15.98;100.00;99448.19;4107735;28;20265;-62
2022/10/18 05:12:09;;;;;;;9.00;5.18;;;;;;;15.97;100.00;99454.78;4106679;28;20241;-61
2022/10/18 05:14:10;;;;;;;5.38;4.88;;;;;;;15.96;100.00;99453.13;4106078;28;20641;-62
2022/10/18 05:16:12;;;;;;;7.15;5.07;;;;;;;15.82;100.00;99457.41;4106836;28;20230;-61
2022/10/18 05:18:13;;;;;;;5.70;5.10;;;;;;;15.74;100.00;99457.03;4107398;28;20207;-62
2022/10/18 05:20:15;;;;;;;5.50;4.95;;;;;;;15.80;100.00;99448.56;4107454;28;20249;-62
2022/10/18 05:22:17;;;;;;;5.25;4.85;;;;;;;15.77;100.00;99448.25;4106136;28;20211;-62
2022/10/18 05:24:18;;;;;;;5.50;4.90;;;;;;;15.81;100.00;99450.22;4107325;28;20566;-61
2022/10/18 05:26:24;;;;;;;5.75;5.18;;;;;;;15.84;100.00;99444.16;4107732;28;20234;-63
2022/10/18 05:28:26;;;;;;;6.05;4.88;;;;;;;15.88;100.00;99439.81;4107093;28;20207;-62
2022/10/18 05:30:40;;;;;;;5.50;4.85;;;;;;;15.91;100.00;99428.22;4106637;28;20210;-63
2022/10/18 05:32:41;;;;;;;5.85;4.35;;;;;;;15.88;100.00;99427.91;4106016;28;20210;-62
2022/10/18 05:34:43;;;;;;;5.28;4.60;;;;;;;15.83;100.00;99425.13;4106264;28;20277;-62
2022/10/18 05:36:45;;;;;;;8.95;5.63;;;;;;;15.82;100.00;99424.28;4104485;28;20227;-62
2022/10/18 05:38:47;;;;;;;16.58;5.28;;;;;;;15.83;100.00;99417.66;4106561;28;20597;-62
2022/10/18 05:40:48;;;;;;;8.68;4.72;;;;;;;15.82;100.00;99424.28;4107861;28;20670;-63
2022/10/18 05:42:51;;;;;;;6.03;4.88;;;;;;;15.85;100.00;99417.41;4107053;28;20215;-63
2022/10/18 05:44:52;;;;;;;7.38;4.88;;;;;;;15.86;100.00;99419.91;4106700;28;20745;-62
2022/10/18 05:46:54;;;;;;;10.93;4.78;;;;;;;15.87;100.00;99418.81;4108688;28;20245;-62
2022/10/18 05:48:55;;;;;;;5.72;5.20;;;;;;;15.96;100.00;99420.00;4110204;28;20258;-65
2022/10/18 05:50:58;;;;;;;15.25;4.82;;;;;;;15.94;100.00;99411.16;4107779;28;20215;-62
2022/10/18 05:53:00;;;;;;;6.25;4.68;;;;;;;15.92;100.00;99406.97;4107917;28;20206;-62
2022/10/18 05:55:18;;;;;;;7.82;4.45;;;;;;;15.95;100.00;99412.81;4109034;28;20226;-62
2022/10/18 05:57:20;;;;;;;7.03;4.78;;;;;;;15.86;100.00;99419.91;4102952;28;20802;-62
2022/10/18 05:59:21;;;;;;;5.18;4.68;;;;;;;15.83;100.00;99428.69;4102294;28;20678;-62
2022/10/18 06:01:23;;;;;;;13.38;5.03;;;;;;;15.87;100.00;99420.72;4102657;28;20202;-62
2022/10/18 06:03:26;;;;;;;11.55;5.35;;;;;;;15.86;100.00;99424.59;4101317;28;20210;-62
2022/10/18 06:05:28;;;;;;;10.13;5.38;;;;;;;15.89;100.00;99440.66;4118641;28;20237;-62
2022/10/18 06:07:29;;;;;;;5.18;4.68;;;;;;;15.90;100.00;99442.31;4102339;28;20946;-62
2022/10/18 06:09:31;;;;;;;12.68;7.00;;;;;;;15.89;100.00;99446.16;4118291;28;20224;-61
2022/10/18 06:11:34;;;;;;;10.23;7.05;;;;;;;15.89;100.00;99458.03;4102261;28;20258;-62
2022/10/18 06:13:40;;;;;;;11.60;9.20;;;;;;;15.90;100.00;99465.22;4100606;28;20842;-62
2022/10/18 06:15:42;;;;;;;9.90;7.78;;;;;;;15.89;100.00;99463.56;4104388;28;20230;-62
2022/10/18 06:17:43;;;;;;;17.42;8.57;;;;;;;15.88;100.00;99469.31;4100398;28;20218;-62
2022/10/18 06:19:45;;;;;;;17.50;9.23;;;;;;;15.89;100.00;99469.06;4103600;28;20206;-61
2022/10/18 06:21:46;;;;;;;22.23;8.55;;;;;;;15.98;100.00;99466.69;4104038;28;20301;-62
2022/10/18 06:23:56;;;;;;;14.30;6.90;;;;;;;15.98;100.00;99475.81;4099370;28;20210;-62
2022/10/18 06:26:02;;;;;;;16.17;7.72;;;;;;;15.93;100.00;99475.75;4101706;28;20285;-62
2022/10/18 06:28:04;;;;;;;10.77;7.57;;;;;;;15.89;100.00;99477.34;4115191;28;20210;-61
2022/10/18 06:30:10;;;;;;;9.02;6.78;;;;;;;15.88;100.00;99483.97;4101636;28;20211;-62
2022/10/18 06:32:12;;;;;;;7.97;6.35;;;;;;;15.91;100.00;99485.38;4107030;28;20627;-62
2022/10/18 06:34:14;;;;;;;12.10;6.40;;;;;;;15.94;100.00;99493.97;4105906;28;21017;-62
2022/10/18 06:36:22;;;;;;;7.75;6.20;;;;;;;15.94;100.00;99491.22;4108746;28;20230;-62
2022/10/18 06:38:25;;;;;;;7.97;6.15;;;;;;;15.96;100.00;99491.78;4105954;28;20230;-62
2022/10/18 06:40:26;;;;;;;8.73;6.22;;;;;;;15.96;100.00;99497.31;4106116;28;20563;-62
2022/10/18 06:42:28;;;;;;;6.68;6.05;;;;;;;15.96;100.00;99502.81;4107727;28;20215;-62
2022/10/18 06:44:30;;;;;;;9.35;5.72;;;;;;;16.00;100.00;99503.97;4107593;28;20265;-63
2022/10/18 06:46:32;;;;;;;10.02;6.10;;;;;;;16.01;100.00;99505.66;4107499;28;20342;-62
2022/10/18 06:48:35;;;;;;;6.57;5.07;;;;;;;16.03;100.00;99511.72;4106923;28;20207;-62
2022/10/18 06:50:36;;;;;;;8.50;5.53;;;;;;;16.08;100.00;99516.47;4101384;28;20244;-62
2022/10/18 06:52:39;;;;;;;8.95;5.63;;;;;;;16.07;100.00;99512.88;4106352;28;20215;-62
2022/10/18 06:54:41;;;;;;;10.30;5.15;;;;;;;16.04;100.00;99505.09;4087708;28;20682;-62
2022/10/18 06:56:45;;;;;;;6.80;5.53;;;;;;;16.12;100.00;99518.47;4107187;28;20223;-63
2022/10/18 06:58:47;;;;;;;12.25;6.28;;;;;;;16.12;100.00;99518.47;4124435;28;20305;-62
2022/10/18 07:00:48;;;;;;;6.38;5.75;;;;;;;16.12;100.00;99518.47;4107487;28;20261;-62
2022/10/18 07:02:50;;;;;;;6.43;5.85;;;;;;;16.16;100.00;99518.78;4110350;28;20219;-63
2022/10/18 07:04:52;;;;;;;10.65;6.18;;;;;;;16.06;100.00;99521.41;4107845;28;22316;-61
2022/10/18 07:06:53;;;;;;;6.85;5.38;;;;;;;16.05;100.00;99520.59;4105360;28;20773;-62
2022/10/18 07:08:55;;;;;;;7.18;5.32;;;;;;;16.10;100.00;99525.34;4105443;28;20571;-62
2022/10/18 07:10:57;;;;;;;5.18;4.65;;;;;;;16.12;100.00;99518.47;4104517;28;20218;-63
2022/10/18 07:12:59;;;;;;;5.72;4.97;;;;;;;16.19;100.00;99521.84;4115700;28;20217;-63
2022/10/18 07:15:22;;;;;;;5.50;4.88;;;;;;;16.09;100.00;99518.97;4088988;28;20417;-62
2022/10/18 07:17:24;;;;;;;8.98;5.72;;;;;;;16.06;100.00;99518.66;4103262;28;20253;-63
2022/10/18 07:19:26;;;;;;;19.58;6.40;;;;;;;16.11;100.00;99521.47;4102513;28;21073;-63
2022/10/18 07:21:28;;;;;;;10.20;6.60;;;;;;;16.14;100.00;99524.56;4105525;28;20589;-63
2022/10/18 07:23:32;;;;;;;5.38;4.88;;;;;;;16.18;100.00;99525.72;4103653;28;20210;-62
2022/10/18 07:25:34;;;;;;;7.65;5.13;;;;;;;16.21;100.00;99527.09;4117813;28;20234;-62
2022/10/18 07:27:41;;;;;;;6.63;5.85;;;;;;;16.24;100.00;99527.41;4106489;28;20257;-62
2022/10/18 07:29:43;;;;;;;12.57;5.40;;;;;;;16.29;100.00;99530.22;4106136;28;20207;-62
2022/10/18 07:31:44;;;;;;;8.30;5.30;;;;;;;16.32;100.00;99534.38;4105100;28;20838;-63
2022/10/18 07:33:46;;;;;;;7.30;6.07;;;;;;;16.33;100.00;99536.91;4103025;28;20301;-62
2022/10/18 07:35:47;;;;;;;7.88;6.22;;;;;;;16.39;100.00;99540.56;4104804;28;20235;-62
2022/10/18 07:37:51;;;;;;;13.48;7.88;;;;;;;16.34;100.00;99538.56;4107508;28;20226;-62
2022/10/18 07:39:55;;;;;;;6.72;6.13;;;;;;;16.39;100.00;99541.41;4087654;28;20212;-63
2022/10/18 07:41:56;;;;;;;8.10;6.15;;;;;;;16.38;100.00;99545.28;4103271;28;20215;-62
2022/10/18 07:43:58;;;;;;;7.20;6.07;;;;;;;16.42;100.00;99546.41;4106025;28;20225;-62
2022/10/18 07:46:01;;;;;;;7.00;4.97;;;;;;;16.46;100.00;99552.22;4103670;28;20238;-62
2022/10/18 07:48:03;;;;;;;9.10;6.18;;;;;;;16.51;100.00;99549.53;4103994;28;20688;-62
2022/10/18 07:50:05;;;;;;;8.98;6.05;;;;;;;16.52;100.00;99557.56;4102330;28;20215;-62
2022/10/18 07:52:07;;;;;;;7.35;6.63;;;;;;;16.56;100.00;99553.16;4103598;28;20206;-62
2022/10/18 07:54:09;;;;;;;6.93;6.22;;;;;;;16.55;100.00;99557.00;4105311;28;20257;-62
2022/10/18 07:56:16;;;;;;;9.70;5.72;;;;;;;16.58;100.00;99545.44;4104433;28;20230;-62
2022/10/18 07:58:18;;;;;;;13.38;5.88;;;;;;;16.58;100.00;99556.50;4106096;28;20979;-63
2022/10/18 08:00:19;;;;;;;9.23;6.10;;;;;;;16.67;100.00;99554.91;4106713;28;20265;-63
2022/10/18 08:02:24;;;;;;;9.43;6.75;;;;;;;16.73;100.00;99564.91;4105060;28;20294;-61
2022/10/18 08:04:26;;;;;;;8.23;7.20;;;;;;;16.73;100.00;99561.31;4108981;28;20379;-61
2022/10/18 08:06:27;;;;;;;7.38;6.65;;;;;;;16.75;100.00;99568.25;4105118;28;20232;-63
2022/10/18 08:08:30;;;;;;;9.50;6.30;;;;;;;16.75;100.00;99568.25;4106855;28;20199;-63
2022/10/18 08:10:33;;;;;;;10.25;6.55;;;;;;;16.78;100.00;99570.50;4105510;28;20900;-61
2022/10/18 08:12:35;;;;;;;8.52;7.70;;;;;;;16.81;100.00;99569.97;4107113;28;20293;-62
2022/10/18 08:14:36;;;;;;;8.55;6.65;;;;;;;16.82;100.00;99568.84;4108799;28;20202;-61
2022/10/18 08:16:38;;;;;;;9.90;7.40;;;;;;;16.86;100.00;99575.53;4103218;28;20316;-62
2022/10/18 08:18:40;;;;;;;9.00;6.82;;;;;;;16.94;100.00;99577.81;4105683;28;20235;-62
2022/10/18 08:20:45;;;;;;;8.05;7.45;;;;;;;16.74;100.00;99574.03;4103125;28;20209;-62
2022/10/18 08:22:49;;;;;;;8.85;8.05;;;;;;;16.78;100.00;99578.78;4106681;28;20226;-62
2022/10/18 08:24:50;;;;;;;11.38;7.90;;;;;;;16.76;100.00;99575.44;4105967;28;20225;-62
2022/10/18 08:26:52;;;;;;;11.20;10.07;;;;;;;16.63;100.00;99575.88;4107513;28;20765;-62
2022/10/18 08:28:53;;;;;;;10.75;9.63;;;;;;;16.80;100.00;99576.59;4105049;28;20202;-62
2022/10/18 08:31:17;;;;;;;15.98;9.02;;;;;;;16.88;100.00;99581.63;4109010;28;20242;-62
2022/10/18 08:33:18;;;;;;;11.38;10.18;;;;;;;16.98;100.00;99587.25;4106852;28;20241;-62
2022/10/18 08:35:20;;;;;;;19.50;10.00;;;;;;;17.00;100.00;99587.81;4103276;28;20257;-62
2022/10/18 08:37:22;;;;;;;18.30;9.93;;;;;;;17.07;100.00;99591.19;4104341;28;20576;-64
2022/10/18 08:39:23;;;;;;;14.55;11.70;;;;;;;17.07;100.00;99582.88;4104882;28;20210;-64
2022/10/18 08:41:44;;;;;;;14.15;10.88;;;;;;;17.07;100.00;99588.41;4118101;28;20205;-64
2022/10/18 08:44:03;;;;;;;18.10;14.38;;;;;;;17.21;100.00;99595.16;4105098;28;20215;-64
2022/10/18 08:46:10;;;;;;;18.55;12.88;;;;;;;17.21;100.00;99595.16;4116806;28;20229;-65
2022/10/18 08:48:20;;;;;;;17.73;12.70;;;;;;;17.06;100.00;99587.56;4100427;28;20257;-62
2022/10/18 08:50:34;;;;;;;19.70;13.57;;;;;;;17.13;100.00;99590.13;4104774;28;20302;-64
2022/10/18 08:53:27;;;;;;;21.98;14.88;;;;;;;17.19;100.00;99580.75;4118868;28;20209;-63
2022/10/18 08:55:37;;;;;;;18.65;13.10;;;;;;;17.24;100.00;99584.38;4068677;29;20243;-63
2022/10/18 08:57:39;;;;;;;16.27;12.68;;;;;;;17.29;100.00;99592.72;4086901;28;20238;-62
2022/10/18 08:59:41;;;;;;;17.98;12.30;;;;;;;17.43;100.00;99593.09;4102338;28;20211;-62
2022/10/18 09:01:58;;;;;;;13.57;11.35;;;;;;;17.51;100.00;99595.38;4105227;28;20693;-62
2022/10/18 09:04:20;;;;;;;18.58;11.20;;;;;;;17.56;100.00;99592.63;4104295;28;20217;-62
2022/10/18 09:06:27;;;;;;;12.77;10.10;;;;;;;17.56;100.00;99592.63;4106817;28;20226;-62
2022/10/18 09:08:28;;;;;;;21.17;11.23;;;;;;;17.65;100.00;99591.03;4106753;28;20207;-62
2022/10/18 09:11:26;;;;;;;15.93;9.43;;;;;;;17.77;100.00;99588.84;4106758;28;20337;-62
2022/10/18 09:13:46;;;;;;;9.55;8.75;;;;;;;17.75;100.00;99588.28;4068636;28;20294;-63
2022/10/18 09:15:56;;;;;;;12.80;8.52;;;;;;;17.61;100.00;99589.88;4105249;28;20230;-62
2022/10/18 09:18:16;;;;;;;9.93;7.88;;;;;;;17.61;100.00;99578.81;4107777;28;20244;-62
2022/10/18 09:20:24;;;;;;;12.35;7.55;;;;;;;17.80;100.00;99588.31;4105634;28;20555;-62
2022/10/18 09:22:46;;;;;;;8.88;6.72;;;;;;;18.23;100.00;99593.44;4089073;28;20207;-63
2022/10/18 09:24:48;;;;;;;7.30;6.35;;;;;;;18.41;100.00;99595.72;4122866;28;20213;-62
2022/10/18 09:27:00;;;;;;;6.45;5.95;;;;;;;18.47;100.00;99594.63;4107778;28;20234;-61
2022/10/18 09:29:58;;;;;;;5.60;5.13;;;;;;;18.38;100.00;99596.31;4119216;28;20253;-62
2022/10/18 09:32:31;;;;;;;7.85;6.15;;;;;;;18.33;100.00;99593.50;4071071;29;20208;-63
2022/10/18 09:34:40;;;;;;;6.20;5.70;;;;;;;18.41;100.00;99592.97;4065558;29;20230;-63
2022/10/18 09:36:43;;;;;;;5.28;4.28;;;;;;;18.27;100.00;99594.56;4061618;28;20229;-65
2022/10/18 09:38:47;;;;;;;5.95;4.03;;;;;;;18.40;100.00;99599.63;4104605;28;20626;-65